sensor_id;sensor_type;location;lat;lon;timestamp;pressure;altitude;pressure_sealevel;temperature;humidity
75538;BME280;64121;48.666;8.114;2023-03-02T00:01:39;100146.28;;;0.52;76.96
75538;BME280;64121;48.666;8.114;2023-03-02T00:04:07;100149.84;;;0.52;76.92
75538;BME280;64121;48.666;8.114;2023-03-02T00:06:35;100152.03;;;0.50;77.42
75538;BME280;64121;48.666;8.114;2023-03-02T00:09:01;100140.00;;;0.51;77.23
75538;BME280;64121;48.666;8.114;2023-03-02T00:11:27;100129.84;;;0.57;77.30
75538;BME280;64121;48.666;8.114;2023-03-02T00:13:54;100137.75;;;0.64;76.97
75538;BME280;64121;48.666;8.114;2023-03-02T00:16:19;100135.88;;;0.59;77.50
75538;BME280;64121;48.666;8.114;2023-03-02T00:18:44;100135.34;;;0.57;77.35
75538;BME280;64121;48.666;8.114;2023-03-02T00:21:10;100132.03;;;0.55;77.46
75538;BME280;64121;48.666;8.114;2023-03-02T00:23:35;100138.88;;;0.52;77.70
75538;BME280;64121;48.666;8.114;2023-03-02T00:26:00;100141.63;;;0.52;77.69
75538;BME280;64121;48.666;8.114;2023-03-02T00:28:26;100137.81;;;0.48;77.84
75538;BME280;64121;48.666;8.114;2023-03-02T00:30:52;100140.56;;;0.43;78.27
75538;BME280;64121;48.666;8.114;2023-03-02T00:33:18;100131.25;;;0.44;78.17
75538;BME280;64121;48.666;8.114;2023-03-02T00:35:43;100133.19;;;0.44;78.30
75538;BME280;64121;48.666;8.114;2023-03-02T00:38:08;100126.34;;;0.41;78.66
75538;BME280;64121;48.666;8.114;2023-03-02T00:40:34;100126.34;;;0.41;78.89
75538;BME280;64121;48.666;8.114;2023-03-02T00:43:00;100117.84;;;0.43;79.04
75538;BME280;64121;48.666;8.114;2023-03-02T00:45:25;100120.59;;;0.43;78.74
75538;BME280;64121;48.666;8.114;2023-03-02T00:47:52;100129.34;;;0.45;79.11
75538;BME280;64121;48.666;8.114;2023-03-02T00:50:17;100118.94;;;0.42;78.66
75538;BME280;64121;48.666;8.114;2023-03-02T00:52:42;100113.47;;;0.37;79.47
75538;BME280;64121;48.666;8.114;2023-03-02T00:55:08;100121.16;;;0.35;79.26
75538;BME280;64121;48.666;8.114;2023-03-02T00:57:34;100108.56;;;0.34;79.24
75538;BME280;64121;48.666;8.114;2023-03-02T00:59:59;100109.38;;;0.39;79.62
75538;BME280;64121;48.666;8.114;2023-03-02T01:02:25;100104.47;;;0.31;79.84
75538;BME280;64121;48.666;8.114;2023-03-02T01:04:52;100099.84;;;0.26;80.14
75538;BME280;64121;48.666;8.114;2023-03-02T01:07:19;100102.28;;;0.33;80.20
75538;BME280;64121;48.666;8.114;2023-03-02T01:09:44;100101.44;;;0.33;79.95
75538;BME280;64121;48.666;8.114;2023-03-02T01:12:11;100095.44;;;0.30;80.13
75538;BME280;64121;48.666;8.114;2023-03-02T01:14:37;100100.38;;;0.28;80.70
75538;BME280;64121;48.666;8.114;2023-03-02T01:17:03;100093.00;;;0.24;80.47
75538;BME280;64121;48.666;8.114;2023-03-02T01:19:28;100085.91;;;0.23;80.58
75538;BME280;64121;48.666;8.114;2023-03-02T01:21:55;100092.47;;;0.17;81.11
75538;BME280;64121;48.666;8.114;2023-03-02T01:24:21;100084.81;;;0.14;81.24
75538;BME280;64121;48.666;8.114;2023-03-02T01:26:46;100085.09;;;0.12;81.32
75538;BME280;64121;48.666;8.114;2023-03-02T01:29:13;100080.16;;;0.14;81.37
75538;BME280;64121;48.666;8.114;2023-03-02T01:31:38;100087.53;;;0.14;81.56
75538;BME280;64121;48.666;8.114;2023-03-02T01:34:04;100076.31;;;0.15;81.52
75538;BME280;64121;48.666;8.114;2023-03-02T01:36:29;100081.22;;;0.18;81.42
75538;BME280;64121;48.666;8.114;2023-03-02T01:38:56;100078.78;;;0.17;81.35
75538;BME280;64121;48.666;8.114;2023-03-02T01:41:21;100068.41;;;0.14;81.75
75538;BME280;64121;48.666;8.114;2023-03-02T01:43:47;100070.59;;;0.12;81.68
75538;BME280;64121;48.666;8.114;2023-03-02T01:46:13;100066.78;;;0.08;81.97
75538;BME280;64121;48.666;8.114;2023-03-02T01:48:44;100053.91;;;0.13;81.95
75538;BME280;64121;48.666;8.114;2023-03-02T01:51:11;100060.22;;;0.09;81.45
75538;BME280;64121;48.666;8.114;2023-03-02T01:53:37;100061.88;;;0.05;82.01
75538;BME280;64121;48.666;8.114;2023-03-02T01:56:05;100052.56;;;0.06;82.14
75538;BME280;64121;48.666;8.114;2023-03-02T01:58:33;100053.66;;;-0.01;82.31
75538;BME280;64121;48.666;8.114;2023-03-02T02:01:00;100044.91;;;-0.03;82.04
75538;BME280;64121;48.666;8.114;2023-03-02T02:03:27;100054.75;;;-0.02;82.27
75538;BME280;64121;48.666;8.114;2023-03-02T02:06:00;100044.91;;;-0.03;82.00
75538;BME280;64121;48.666;8.114;2023-03-02T02:08:30;100041.91;;;0.04;82.05
75538;BME280;64121;48.666;8.114;2023-03-02T02:10:56;100045.97;;;0.12;81.66
75538;BME280;64121;48.666;8.114;2023-03-02T02:13:24;100050.09;;;0.09;81.72
75538;BME280;64121;48.666;8.114;2023-03-02T02:15:50;100051.50;;;0.02;82.23
75538;BME280;64121;48.666;8.114;2023-03-02T02:18:16;100039.97;;;-0.01;82.29
75538;BME280;64121;48.666;8.114;2023-03-02T02:20:43;100044.38;;;-0.05;82.57
75538;BME280;64121;48.666;8.114;2023-03-02T02:23:18;100039.75;;;-0.09;82.94
75538;BME280;64121;48.666;8.114;2023-03-02T02:26:09;100041.66;;;-0.10;82.66
75538;BME280;64121;48.666;8.114;2023-03-02T02:28:40;100039.50;;;-0.18;83.14
75538;BME280;64121;48.666;8.114;2023-03-02T02:31:12;100041.66;;;-0.20;83.36
75538;BME280;64121;48.666;8.114;2023-03-02T02:33:41;100028.56;;;-0.23;83.36
75538;BME280;64121;48.666;8.114;2023-03-02T02:36:15;100038.69;;;-0.28;83.81
75538;BME280;64121;48.666;8.114;2023-03-02T02:38:44;100034.84;;;-0.27;83.56
75538;BME280;64121;48.666;8.114;2023-03-02T02:41:16;100036.75;;;-0.23;83.77
75538;BME280;64121;48.666;8.114;2023-03-02T02:43:43;100034.56;;;-0.26;83.75
75538;BME280;64121;48.666;8.114;2023-03-02T02:46:09;100036.50;;;-0.32;83.96
75538;BME280;64121;48.666;8.114;2023-03-02T02:48:35;100034.59;;;-0.31;83.91
75538;BME280;64121;48.666;8.114;2023-03-02T02:51:01;100037.59;;;-0.33;84.32
75538;BME280;64121;48.666;8.114;2023-03-02T02:53:28;100038.97;;;-0.40;84.22
75538;BME280;64121;48.666;8.114;2023-03-02T02:55:56;100028.56;;;-0.38;84.51
75538;BME280;64121;48.666;8.114;2023-03-02T02:58:31;100031.06;;;-0.37;84.25
75538;BME280;64121;48.666;8.114;2023-03-02T03:00:58;100032.13;;;-0.38;84.34
75538;BME280;64121;48.666;8.114;2023-03-02T03:03:27;100036.25;;;-0.45;84.38
75538;BME280;64121;48.666;8.114;2023-03-02T03:05:53;100034.59;;;-0.41;84.65
75538;BME280;64121;48.666;8.114;2023-03-02T03:11:23;100023.09;;;-0.38;84.71
75538;BME280;64121;48.666;8.114;2023-03-02T03:13:54;100029.38;;;-0.38;84.75
75538;BME280;64121;48.666;8.114;2023-03-02T03:16:22;100031.31;;;-0.43;84.64
75538;BME280;64121;48.666;8.114;2023-03-02T03:18:48;100039.25;;;-0.47;84.63
75538;BME280;64121;48.666;8.114;2023-03-02T03:21:15;100040.91;;;-0.51;84.41
75538;BME280;64121;48.666;8.114;2023-03-02T03:23:40;100051.81;;;-0.56;84.57
75538;BME280;64121;48.666;8.114;2023-03-02T03:26:06;100042.00;;;-0.67;85.29
75538;BME280;64121;48.666;8.114;2023-03-02T03:28:32;100055.13;;;-0.69;85.32
75538;BME280;64121;48.666;8.114;2023-03-02T03:30:59;100047.72;;;-0.79;86.01
75538;BME280;64121;48.666;8.114;2023-03-02T03:33:24;100046.09;;;-0.80;86.17
75538;BME280;64121;48.666;8.114;2023-03-02T03:35:50;100034.59;;;-0.56;85.49
75538;BME280;64121;48.666;8.114;2023-03-02T03:38:15;100038.44;;;-0.57;85.31
75538;BME280;64121;48.666;8.114;2023-03-02T03:40:41;100037.88;;;-0.59;84.97
75538;BME280;64121;48.666;8.114;2023-03-02T03:43:06;100039.25;;;-0.67;85.43
75538;BME280;64121;48.666;8.114;2023-03-02T03:45:32;100044.19;;;-0.64;85.70
75538;BME280;64121;48.666;8.114;2023-03-02T03:47:58;100044.19;;;-0.69;85.93
75538;BME280;64121;48.666;8.114;2023-03-02T03:50:24;100045.28;;;-0.70;85.81
75538;BME280;64121;48.666;8.114;2023-03-02T03:52:49;100033.28;;;-0.74;85.85
75538;BME280;64121;48.666;8.114;2023-03-02T03:55:15;100032.19;;;-0.73;86.32
75538;BME280;64121;48.666;8.114;2023-03-02T03:57:41;100034.34;;;-0.75;86.40
75538;BME280;64121;48.666;8.114;2023-03-02T04:00:09;100035.16;;;-0.75;86.32
75538;BME280;64121;48.666;8.114;2023-03-02T04:02:35;100035.97;;;-0.79;86.22
75538;BME280;64121;48.666;8.114;2023-03-02T04:05:02;100040.34;;;-0.78;86.59
75538;BME280;64121;48.666;8.114;2023-03-02T04:07:27;100045.00;;;-0.84;86.33
75538;BME280;64121;48.666;8.114;2023-03-02T04:09:53;100045.53;;;-0.82;86.57
75538;BME280;64121;48.666;8.114;2023-03-02T04:12:18;100049.88;;;-0.96;86.32
75538;BME280;64121;48.666;8.114;2023-03-02T04:14:43;100052.91;;;-1.03;86.88
75538;BME280;64121;48.666;8.114;2023-03-02T04:17:09;100047.44;;;-1.08;86.84
75538;BME280;64121;48.666;8.114;2023-03-02T04:19:34;100056.97;;;-1.10;87.33
75538;BME280;64121;48.666;8.114;2023-03-02T04:22:01;100046.91;;;-0.89;86.98
75538;BME280;64121;48.666;8.114;2023-03-02T04:24:26;100054.53;;;-0.76;86.83
75538;BME280;64121;48.666;8.114;2023-03-02T04:26:51;100052.91;;;-0.82;86.94
75538;BME280;64121;48.666;8.114;2023-03-02T04:29:17;100049.66;;;-0.74;86.54
75538;BME280;64121;48.666;8.114;2023-03-02T04:31:43;100049.63;;;-0.59;86.57
75538;BME280;64121;48.666;8.114;2023-03-02T04:34:08;100050.75;;;-0.50;85.91
75538;BME280;64121;48.666;8.114;2023-03-02T04:36:37;100056.75;;;-0.58;85.64
75538;BME280;64121;48.666;8.114;2023-03-02T04:39:05;100069.59;;;-0.69;85.92
75538;BME280;64121;48.666;8.114;2023-03-02T04:41:31;100072.31;;;-0.84;86.17
75538;BME280;64121;48.666;8.114;2023-03-02T04:43:57;100075.84;;;-0.88;86.69
75538;BME280;64121;48.666;8.114;2023-03-02T04:46:25;100091.66;;;-1.01;86.59
75538;BME280;64121;48.666;8.114;2023-03-02T04:48:51;100080.47;;;-1.04;87.11
75538;BME280;64121;48.666;8.114;2023-03-02T04:51:18;100082.06;;;-1.18;87.30
75538;BME280;64121;48.666;8.114;2023-03-02T04:53:44;100080.16;;;-1.13;87.49
75538;BME280;64121;48.666;8.114;2023-03-02T04:56:11;100068.50;;;-0.88;87.51
75538;BME280;64121;48.666;8.114;2023-03-02T04:58:36;100071.19;;;-0.98;87.07
75538;BME280;64121;48.666;8.114;2023-03-02T05:01:01;100068.72;;;-1.10;87.51
75538;BME280;64121;48.666;8.114;2023-03-02T05:03:27;100067.03;;;-1.21;87.34
75538;BME280;64121;48.666;8.114;2023-03-02T05:05:52;100061.31;;;-1.30;88.32
75538;BME280;64121;48.666;8.114;2023-03-02T05:08:17;100065.38;;;-1.37;88.06
75538;BME280;64121;48.666;8.114;2023-03-02T05:10:43;100070.81;;;-1.37;88.54
75538;BME280;64121;48.666;8.114;2023-03-02T05:13:09;100070.81;;;-1.42;89.44
75538;BME280;64121;48.666;8.114;2023-03-02T05:15:37;100065.91;;;-1.35;88.94
75538;BME280;64121;48.666;8.114;2023-03-02T05:18:05;100063.44;;;-1.42;88.72
75538;BME280;64121;48.666;8.114;2023-03-02T05:20:32;100073.28;;;-1.41;88.79
75538;BME280;64121;48.666;8.114;2023-03-02T05:22:59;100073.06;;;-1.24;89.16
75538;BME280;64121;48.666;8.114;2023-03-02T05:25:27;100068.38;;;-1.34;88.81
75538;BME280;64121;48.666;8.114;2023-03-02T05:27:53;100085.81;;;-1.45;88.99
75538;BME280;64121;48.666;8.114;2023-03-02T05:30:20;100080.03;;;-1.54;88.41
75538;BME280;64121;48.666;8.114;2023-03-02T05:32:46;100086.56;;;-1.60;89.24
75538;BME280;64121;48.666;8.114;2023-03-02T05:35:12;100081.09;;;-1.65;90.06
75538;BME280;64121;48.666;8.114;2023-03-02T05:37:38;100082.69;;;-1.69;89.59
75538;BME280;64121;48.666;8.114;2023-03-02T05:40:04;100085.94;;;-1.72;89.28
75538;BME280;64121;48.666;8.114;2023-03-02T05:42:30;100086.50;;;-1.75;89.70
75538;BME280;64121;48.666;8.114;2023-03-02T05:44:55;100095.75;;;-1.81;90.49
75538;BME280;64121;48.666;8.114;2023-03-02T05:47:22;100087.06;;;-1.68;90.83
75538;BME280;64121;48.666;8.114;2023-03-02T05:49:47;100083.00;;;-1.60;90.23
75538;BME280;64121;48.666;8.114;2023-03-02T05:52:12;100093.44;;;-1.47;90.36
75538;BME280;64121;48.666;8.114;2023-03-02T05:54:38;100091.56;;;-1.41;89.83
75538;BME280;64121;48.666;8.114;2023-03-02T05:57:03;100096.72;;;-1.45;89.04
75538;BME280;64121;48.666;8.114;2023-03-02T05:59:29;100098.31;;;-1.54;88.34
75538;BME280;64121;48.666;8.114;2023-03-02T06:01:54;100085.41;;;-1.69;89.58
75538;BME280;64121;48.666;8.114;2023-03-02T06:04:21;100086.28;;;-1.63;90.11
75538;BME280;64121;48.666;8.114;2023-03-02T06:06:46;100095.78;;;-1.71;89.23
75538;BME280;64121;48.666;8.114;2023-03-02T06:09:11;100082.38;;;-1.77;89.13
75538;BME280;64121;48.666;8.114;2023-03-02T06:11:37;100095.13;;;-1.88;89.10
75538;BME280;64121;48.666;8.114;2023-03-02T06:14:02;100100.03;;;-1.90;88.96
75538;BME280;64121;48.666;8.114;2023-03-02T06:16:27;100103.28;;;-1.93;89.51
75538;BME280;64121;48.666;8.114;2023-03-02T06:18:53;100100.09;;;-1.85;90.41
75538;BME280;64121;48.666;8.114;2023-03-02T06:21:19;100111.00;;;-1.80;90.91
75538;BME280;64121;48.666;8.114;2023-03-02T06:23:45;100106.34;;;-1.85;89.92
75538;BME280;64121;48.666;8.114;2023-03-02T06:26:11;100108.75;;;-1.88;89.45
75538;BME280;64121;48.666;8.114;2023-03-02T06:28:36;100102.47;;;-1.94;89.69
75538;BME280;64121;48.666;8.114;2023-03-02T06:31:02;100108.75;;;-1.93;89.21
75538;BME280;64121;48.666;8.114;2023-03-02T06:33:28;100119.09;;;-1.95;88.63
75538;BME280;64121;48.666;8.114;2023-03-02T06:35:53;100127.84;;;-1.93;88.81
75538;BME280;64121;48.666;8.114;2023-03-02T06:38:20;100125.09;;;-1.93;88.58
75538;BME280;64121;48.666;8.114;2023-03-02T06:40:45;100124.00;;;-1.97;89.38
75538;BME280;64121;48.666;8.114;2023-03-02T06:43:10;100129.81;;;-1.84;90.45
75538;BME280;64121;48.666;8.114;2023-03-02T06:45:36;100130.09;;;-1.80;90.52
75538;BME280;64121;48.666;8.114;2023-03-02T06:48:01;100141.56;;;-1.78;89.90
75538;BME280;64121;48.666;8.114;2023-03-02T06:50:27;100135.84;;;-1.76;89.64
75538;BME280;64121;48.666;8.114;2023-03-02T06:52:52;100137.75;;;-1.77;89.66
75538;BME280;64121;48.666;8.114;2023-03-02T06:55:19;100137.47;;;-1.80;89.56
75538;BME280;64121;48.666;8.114;2023-03-02T06:57:44;100135.56;;;-1.80;90.30
75538;BME280;64121;48.666;8.114;2023-03-02T07:00:11;100138.56;;;-1.76;89.45
75538;BME280;64121;48.666;8.114;2023-03-02T07:02:36;100143.50;;;-1.73;89.00
75538;BME280;64121;48.666;8.114;2023-03-02T07:05:02;100150.84;;;-1.74;88.79
75538;BME280;64121;48.666;8.114;2023-03-02T07:07:28;100147.31;;;-1.74;89.56
75538;BME280;64121;48.666;8.114;2023-03-02T07:09:53;100152.75;;;-1.79;89.65
75538;BME280;64121;48.666;8.114;2023-03-02T07:12:20;100155.50;;;-1.74;88.95
75538;BME280;64121;48.666;8.114;2023-03-02T07:14:45;100158.25;;;-1.69;88.29
75538;BME280;64121;48.666;8.114;2023-03-02T07:17:10;100166.47;;;-1.64;88.13
75538;BME280;64121;48.666;8.114;2023-03-02T07:19:36;100164.06;;;-1.56;88.83
75538;BME280;64121;48.666;8.114;2023-03-02T07:22:01;100168.97;;;-1.53;88.50
75538;BME280;64121;48.666;8.114;2023-03-02T07:24:26;100163.56;;;-1.47;87.74
75538;BME280;64121;48.666;8.114;2023-03-02T07:26:51;100170.41;;;-1.45;88.05
75538;BME280;64121;48.666;8.114;2023-03-02T07:29:18;100155.06;;;-1.51;89.05
75538;BME280;64121;48.666;8.114;2023-03-02T07:31:43;100162.78;;;-1.38;89.43
75538;BME280;64121;48.666;8.114;2023-03-02T07:34:09;100171.03;;;-1.28;89.42
75538;BME280;64121;48.666;8.114;2023-03-02T07:36:34;100170.53;;;-1.14;88.08
75538;BME280;64121;48.666;8.114;2023-03-02T07:39:01;100172.75;;;-1.06;88.57
75538;BME280;64121;48.666;8.114;2023-03-02T07:41:26;100174.69;;;-0.97;87.82
75538;BME280;64121;48.666;8.114;2023-03-02T07:43:52;100173.38;;;-0.84;87.54
75538;BME280;64121;48.666;8.114;2023-03-02T07:46:18;100167.91;;;-0.84;87.58
75538;BME280;64121;48.666;8.114;2023-03-02T07:48:44;100191.13;;;-0.76;87.06
75538;BME280;64121;48.666;8.114;2023-03-02T07:51:09;100190.09;;;-0.65;86.73
75538;BME280;64121;48.666;8.114;2023-03-02T07:53:36;100197.50;;;-0.45;86.71
75538;BME280;64121;48.666;8.114;2023-03-02T07:56:05;100181.41;;;-0.26;86.75
75538;BME280;64121;48.666;8.114;2023-03-02T07:58:31;100183.59;;;-0.13;86.11
75538;BME280;64121;48.666;8.114;2023-03-02T08:00:56;100184.66;;;0.11;85.15
75538;BME280;64121;48.666;8.114;2023-03-02T08:03:23;100187.38;;;0.32;84.02
75538;BME280;64121;48.666;8.114;2023-03-02T08:05:48;100187.66;;;0.35;83.83
75538;BME280;64121;48.666;8.114;2023-03-02T08:08:13;100191.19;;;0.46;83.06
75538;BME280;64121;48.666;8.114;2023-03-02T08:10:39;100197.19;;;0.53;83.13
75538;BME280;64121;48.666;8.114;2023-03-02T08:13:04;100199.88;;;0.73;82.20
75538;BME280;64121;48.666;8.114;2023-03-02T08:15:30;100201.75;;;0.88;81.74
75538;BME280;64121;48.666;8.114;2023-03-02T08:17:55;100200.31;;;1.06;81.70
75538;BME280;64121;48.666;8.114;2023-03-02T08:20:22;100202.16;;;1.20;81.48
75538;BME280;64121;48.666;8.114;2023-03-02T08:22:47;100200.19;;;1.36;80.39
75538;BME280;64121;48.666;8.114;2023-03-02T08:25:12;100206.41;;;1.52;80.24
75538;BME280;64121;48.666;8.114;2023-03-02T08:27:38;100211.75;;;1.67;79.24
75538;BME280;64121;48.666;8.114;2023-03-02T08:30:04;100221.28;;;1.80;78.32
75538;BME280;64121;48.666;8.114;2023-03-02T08:32:31;100221.47;;;1.94;78.87
75538;BME280;64121;48.666;8.114;2023-03-02T08:34:57;100218.63;;;2.09;77.46
75538;BME280;64121;48.666;8.114;2023-03-02T08:37:23;100220.38;;;2.29;77.13
75538;BME280;64121;48.666;8.114;2023-03-02T08:39:49;100225.28;;;2.32;76.50
75538;BME280;64121;48.666;8.114;2023-03-02T08:42:14;100223.00;;;2.10;76.75
75538;BME280;64121;48.666;8.114;2023-03-02T08:44:40;100223.06;;;2.34;76.84
75538;BME280;64121;48.666;8.114;2023-03-02T08:47:05;100215.50;;;2.50;76.32
75538;BME280;64121;48.666;8.114;2023-03-02T08:49:30;100221.16;;;2.87;75.33
75538;BME280;64121;48.666;8.114;2023-03-02T08:51:57;100216.00;;;3.04;73.89
75538;BME280;64121;48.666;8.114;2023-03-02T08:54:24;100216.34;;;3.22;74.10
75538;BME280;64121;48.666;8.114;2023-03-02T08:56:50;100205.78;;;3.29;73.55
75538;BME280;64121;48.666;8.114;2023-03-02T08:59:15;100205.72;;;3.34;73.53
75538;BME280;64121;48.666;8.114;2023-03-02T09:01:41;100212.94;;;3.30;73.11
75538;BME280;64121;48.666;8.114;2023-03-02T09:04:08;100211.28;;;3.29;73.13
75538;BME280;64121;48.666;8.114;2023-03-02T09:06:35;100215.22;;;3.23;74.23
75538;BME280;64121;48.666;8.114;2023-03-02T09:09:02;100213.63;;;3.41;72.69
75538;BME280;64121;48.666;8.114;2023-03-02T09:11:29;100212.75;;;3.64;72.49
75538;BME280;64121;48.666;8.114;2023-03-02T09:13:54;100218.16;;;3.88;71.64
75538;BME280;64121;48.666;8.114;2023-03-02T09:16:19;100208.31;;;4.19;70.28
75538;BME280;64121;48.666;8.114;2023-03-02T09:18:45;100213.03;;;4.33;69.70
75538;BME280;64121;48.666;8.114;2023-03-02T09:21:10;100206.97;;;4.17;69.34
75538;BME280;64121;48.666;8.114;2023-03-02T09:23:35;100221.50;;;4.36;69.69
75538;BME280;64121;48.666;8.114;2023-03-02T09:26:01;100220.06;;;4.71;68.73
75538;BME280;64121;48.666;8.114;2023-03-02T09:28:28;100217.94;;;4.36;68.38
75538;BME280;64121;48.666;8.114;2023-03-02T09:30:56;100216.81;;;4.97;67.61
75538;BME280;64121;48.666;8.114;2023-03-02T09:33:22;100214.47;;;5.31;66.31
75538;BME280;64121;48.666;8.114;2023-03-02T09:35:48;100217.72;;;5.47;65.29
75538;BME280;64121;48.666;8.114;2023-03-02T09:38:14;100211.56;;;5.50;64.94
75538;BME280;64121;48.666;8.114;2023-03-02T09:40:48;100214.38;;;5.23;66.00
75538;BME280;64121;48.666;8.114;2023-03-02T09:43:30;100211.50;;;5.28;65.87
75538;BME280;64121;48.666;8.114;2023-03-02T09:46:09;100215.56;;;5.94;64.22
75538;BME280;64121;48.666;8.114;2023-03-02T09:48:42;100213.72;;;5.89;63.99
75538;BME280;64121;48.666;8.114;2023-03-02T09:51:18;100216.59;;;5.84;64.44
75538;BME280;64121;48.666;8.114;2023-03-02T09:53:53;100218.88;;;5.82;63.90
75538;BME280;64121;48.666;8.114;2023-03-02T09:56:21;100225.28;;;5.91;63.05
75538;BME280;64121;48.666;8.114;2023-03-02T09:58:55;100214.47;;;5.81;64.72
75538;BME280;64121;48.666;8.114;2023-03-02T10:01:31;100215.84;;;6.06;64.55
75538;BME280;64121;48.666;8.114;2023-03-02T10:04:03;100222.44;;;5.83;65.27
75538;BME280;64121;48.666;8.114;2023-03-02T10:06:31;100215.34;;;6.04;63.65
75538;BME280;64121;48.666;8.114;2023-03-02T10:08:57;100227.16;;;6.18;63.79
75538;BME280;64121;48.666;8.114;2023-03-02T10:11:30;100225.34;;;6.67;61.59
75538;BME280;64121;48.666;8.114;2023-03-02T10:14:02;100227.66;;;6.74;61.29
75538;BME280;64121;48.666;8.114;2023-03-02T10:16:34;100219.00;;;6.66;61.13
75538;BME280;64121;48.666;8.114;2023-03-02T10:19:07;100222.84;;;6.88;61.23
75538;BME280;64121;48.666;8.114;2023-03-02T10:21:37;100227.53;;;7.18;59.10
75538;BME280;64121;48.666;8.114;2023-03-02T10:24:14;100227.63;;;7.62;58.44
75538;BME280;64121;48.666;8.114;2023-03-02T10:26:43;100229.31;;;7.63;58.73
75538;BME280;64121;48.666;8.114;2023-03-02T10:29:27;100239.28;;;8.07;58.55
75538;BME280;64121;48.666;8.114;2023-03-02T10:31:59;100234.22;;;8.35;57.73
75538;BME280;64121;48.666;8.114;2023-03-02T10:34:29;100229.81;;;8.42;57.16
75538;BME280;64121;48.666;8.114;2023-03-02T10:36:54;100238.09;;;8.68;56.58
75538;BME280;64121;48.666;8.114;2023-03-02T10:39:20;100237.91;;;7.52;58.70
75538;BME280;64121;48.666;8.114;2023-03-02T10:41:49;100228.78;;;7.04;59.58
75538;BME280;64121;48.666;8.114;2023-03-02T10:44:22;100230.44;;;6.74;61.65
75538;BME280;64121;48.666;8.114;2023-03-02T10:46:49;100240.06;;;6.31;60.63
75538;BME280;64121;48.666;8.114;2023-03-02T10:49:26;100240.78;;;6.37;61.73
75538;BME280;64121;48.666;8.114;2023-03-02T10:52:00;100228.34;;;7.10;61.38
75538;BME280;64121;48.666;8.114;2023-03-02T10:54:27;100242.78;;;7.47;58.20
75538;BME280;64121;48.666;8.114;2023-03-02T10:56:54;100241.22;;;8.15;56.78
75538;BME280;64121;48.666;8.114;2023-03-02T10:59:33;100239.69;;;7.48;57.88
75538;BME280;64121;48.666;8.114;2023-03-02T11:02:15;100245.75;;;7.76;58.10
75538;BME280;64121;48.666;8.114;2023-03-02T11:04:41;100239.97;;;7.29;58.71
75538;BME280;64121;48.666;8.114;2023-03-02T11:07:07;100239.22;;;7.07;59.36
75538;BME280;64121;48.666;8.114;2023-03-02T11:09:32;100232.38;;;6.73;60.01
75538;BME280;64121;48.666;8.114;2023-03-02T11:11:57;100234.00;;;7.05;60.56
75538;BME280;64121;48.666;8.114;2023-03-02T11:14:23;100238.81;;;7.31;58.78
75538;BME280;64121;48.666;8.114;2023-03-02T11:16:51;100231.19;;;7.36;57.86
75538;BME280;64121;48.666;8.114;2023-03-02T11:19:24;100236.97;;;7.74;58.17
75538;BME280;64121;48.666;8.114;2023-03-02T11:21:57;100241.16;;;7.46;58.51
75538;BME280;64121;48.666;8.114;2023-03-02T11:24:28;100237.03;;;7.35;58.48
75538;BME280;64121;48.666;8.114;2023-03-02T11:27:00;100232.41;;;6.82;59.59
75538;BME280;64121;48.666;8.114;2023-03-02T11:29:31;100227.31;;;7.54;59.05
75538;BME280;64121;48.666;8.114;2023-03-02T11:32:07;100241.03;;;7.77;58.02
75538;BME280;64121;48.666;8.114;2023-03-02T11:34:41;100239.25;;;8.33;55.40
75538;BME280;64121;48.666;8.114;2023-03-02T11:37:15;100243.38;;;8.44;54.76
75538;BME280;64121;48.666;8.114;2023-03-02T11:39:59;100242.22;;;8.45;55.66
75538;BME280;64121;48.666;8.114;2023-03-02T11:42:29;100242.72;;;8.56;55.53
75538;BME280;64121;48.666;8.114;2023-03-02T11:44:55;100246.47;;;8.42;56.63
75538;BME280;64121;48.666;8.114;2023-03-02T11:47:24;100242.56;;;8.43;54.92
75538;BME280;64121;48.666;8.114;2023-03-02T11:49:53;100245.63;;;8.07;55.77
75538;BME280;64121;48.666;8.114;2023-03-02T11:52:21;100243.81;;;7.68;57.84
75538;BME280;64121;48.666;8.114;2023-03-02T11:54:51;100238.78;;;8.13;56.90
75538;BME280;64121;48.666;8.114;2023-03-02T11:57:22;100234.81;;;7.54;57.95
75538;BME280;64121;48.666;8.114;2023-03-02T11:59:50;100235.53;;;7.85;56.59
75538;BME280;64121;48.666;8.114;2023-03-02T12:02:16;100236.16;;;8.17;56.47
75538;BME280;64121;48.666;8.114;2023-03-02T12:04:43;100232.72;;;7.68;57.73
75538;BME280;64121;48.666;8.114;2023-03-02T12:07:19;100229.91;;;7.59;58.56
75538;BME280;64121;48.666;8.114;2023-03-02T12:09:56;100232.41;;;7.96;56.91
75538;BME280;64121;48.666;8.114;2023-03-02T12:12:32;100237.97;;;8.22;56.67
75538;BME280;64121;48.666;8.114;2023-03-02T12:14:58;100238.63;;;8.10;58.07
75538;BME280;64121;48.666;8.114;2023-03-02T12:17:30;100225.56;;;8.54;56.26
75538;BME280;64121;48.666;8.114;2023-03-02T12:20:21;100236.97;;;8.61;56.46
75538;BME280;64121;48.666;8.114;2023-03-02T12:22:47;100244.16;;;8.53;55.99
75538;BME280;64121;48.666;8.114;2023-03-02T12:25:25;100244.19;;;8.44;55.29
75538;BME280;64121;48.666;8.114;2023-03-02T12:27:53;100235.34;;;8.25;56.01
75538;BME280;64121;48.666;8.114;2023-03-02T12:30:23;100239.75;;;8.26;57.06
75538;BME280;64121;48.666;8.114;2023-03-02T12:33:02;100233.34;;;8.69;56.08
75538;BME280;64121;48.666;8.114;2023-03-02T12:35:32;100239.78;;;8.43;56.16
75538;BME280;64121;48.666;8.114;2023-03-02T12:37:59;100236.97;;;8.52;56.30
75538;BME280;64121;48.666;8.114;2023-03-02T12:40:45;100230.75;;;8.64;55.46
75538;BME280;64121;48.666;8.114;2023-03-02T12:43:29;100224.22;;;8.68;54.80
75538;BME280;64121;48.666;8.114;2023-03-02T12:46:22;100217.84;;;8.68;56.81
75538;BME280;64121;48.666;8.114;2023-03-02T12:48:56;100221.16;;;8.61;54.62
75538;BME280;64121;48.666;8.114;2023-03-02T12:51:25;100216.09;;;8.63;56.72
75538;BME280;64121;48.666;8.114;2023-03-02T12:54:01;100222.88;;;8.83;55.01
75538;BME280;64121;48.666;8.114;2023-03-02T12:56:26;100214.78;;;8.61;55.69
75538;BME280;64121;48.666;8.114;2023-03-02T12:58:53;100209.50;;;8.85;56.03
75538;BME280;64121;48.666;8.114;2023-03-02T13:01:20;100213.94;;;8.77;55.34